アデレード の空港の天気 - METARとTAF

アデレード空港 ( YPAD / ADL ) - オーストラリア 南オーストラリア州アデレード
飛行場実況気象(Metar)
観測時間11/13 11:30 ACDT (11/13 01:00 UTC)
風向・風速南西 8m/s
視程10km以上
天気現象
少しの雲 雲底高度 850m
全天の4割程度の雲 雲底高度 1160m
気温17℃
湿度52%
気圧1023hPa
METARYPAD 130100Z 23015KT 9999 FEW028 SCT038 17/07 Q1023 NOSIG
過去の天気等 Google飛行場航空写真 Wunderground天気予報

過去48時間のMETAR

飛行場予報(TAF)
発表時間: 11/13 09:45 ACDT (11/12 23:15 UTC)
予報対象時間: 13日10時 ACDT ~ 14日16時 ACDT
風向・風速西南西 8m/s
視程10km以上
天気現象運行に影響にある天気現象が終了
少しの雲 雲底高度 910m
全天の8割程度の雲 雲底高度 1370m
13日20時 ACDT から
風向・風速西南西 6m/s
視程10km以上
全天の4割程度の雲 雲底高度 760m
全天の4割程度の雲 雲底高度 1070m
14日1時 ACDT から
風向・風速西 5m/s
視程10km以上
天気現象弱いしゅう雨
全天の4割程度の雲 雲底高度 610m
全天の8割程度の雲 雲底高度 910m
14日13時 ACDT から
風向・風速西 6m/s
視程10km以上
天気現象運行に影響にある天気現象が終了
全天の4割程度の雲 雲底高度 910m
全天の4割程度の雲 雲底高度 1220m
TAF YPAD 122315Z 1300/1406 24016KT 9999 NSW FEW030 BKN045
FM131000 24012KT 9999 SCT025 SCT035
FM131500 26010KT 9999 -SHRA SCT020 BKN030
FM140300 27012KT 9999 NSW SCT030 SCT040